Hanover, Wisconsin
Current Conditions -  °F | °C
As of 8:45 AM on Friday 31 Oct 2014 (Local Time) from KJVL Reporting Station
Broken Clouds Broken Clouds  
Wind Chill: 24°   Ceiling: 4000
Heat Index: 36°   Visibility: 10mi
Dew Point: 25°   Wind: 23mph
Humidity: 65%   Direction: 340°NNW
Pressure: 30.21"   Gusts: 33mph
Location:  42.64°N, 89.16°W
Report Text: KJVL 311345Z 34020G29KT 10SM BKN040 02/M04 A3021
Loading
Personal Weather Stations






























Interactive Weather Map
Tropical Storm Tracking
New forecast layout! Learn more

10-Day Weather Forecast

Advertisements
Track Severe Weather on mobile